Terminal Aerodrome Forecast
Issued by NWS

Home | Current Version | Previous Version | Text Only | Print | Product List | Glossary On
Versions: 1 2 3 4 5 6 7 8 9 10 11 12 13 14 15 16 17
000
FTUS46 KLOX 210003 AAA
TAFPMD
TAF AMD
KPMD 210003Z 2100/2124 33010KT P6SM SKC
     FM210100 27012KT P6SM SKC
     FM210400 27006KT P6SM SKC
     FM210800 21008KT P6SM SKC
     FM211400 VRB03KT P6SM SKC
     FM211800 04008KT P6SM SCT250=

USA.gov is the U.S. government's official web portal to all federal, state and local government web resources and services.